createdAt,value
2023-04-12T00:01:42.257Z,4.20
2023-04-12T00:04:11.018Z,4.20
2023-04-12T00:06:40.259Z,4.20
2023-04-12T00:09:08.873Z,4.30
2023-04-12T00:11:36.873Z,4.30
2023-04-12T00:14:06.090Z,4.30
2023-04-12T00:16:36.491Z,4.30
2023-04-12T00:19:04.461Z,4.40
2023-04-12T00:21:32.448Z,4.40
2023-04-12T00:24:00.438Z,4.50
2023-04-12T00:26:28.390Z,4.50
2023-04-12T00:28:56.427Z,4.60
2023-04-12T00:31:25.764Z,4.50
2023-04-12T00:33:53.726Z,4.50
2023-04-12T00:36:22.194Z,4.50
2023-04-12T00:38:50.074Z,4.40
2023-04-12T00:41:18.947Z,4.40
2023-04-12T00:43:47.302Z,4.40
2023-04-12T00:46:17.506Z,4.40
2023-04-12T00:48:48.323Z,4.40
2023-04-12T00:51:18.170Z,4.40
2023-04-12T00:53:46.335Z,4.50
2023-04-12T00:56:14.424Z,4.50
2023-04-12T00:58:42.333Z,4.50
2023-04-12T01:01:10.590Z,4.50
2023-04-12T01:03:43.186Z,4.50
2023-04-12T01:06:17.275Z,4.50
2023-04-12T01:08:58.515Z,4.50
2023-04-12T01:11:32.830Z,4.60
2023-04-12T01:14:06.544Z,4.60
2023-04-12T01:16:41.012Z,4.60
2023-04-12T01:19:22.790Z,4.60
2023-04-12T01:22:05.348Z,4.60
2023-04-12T01:24:44.600Z,4.60
2023-04-12T01:27:13.669Z,4.60
2023-04-12T01:29:43.749Z,4.60
2023-04-12T01:32:13.588Z,4.60
2023-04-12T01:34:42.435Z,4.60
2023-04-12T01:37:11.162Z,4.60
2023-04-12T01:39:39.350Z,4.70
2023-04-12T01:42:07.354Z,4.70
2023-04-12T01:44:35.228Z,4.80
2023-04-12T01:47:04.655Z,4.80
2023-04-12T01:49:42.347Z,4.90
2023-04-12T01:52:13.553Z,4.90
2023-04-12T01:54:44.966Z,4.90
2023-04-12T01:57:14.266Z,4.90
2023-04-12T01:59:44.459Z,4.90
2023-04-12T02:02:14.757Z,4.90
2023-04-12T02:04:43.852Z,4.90
2023-04-12T02:07:11.998Z,4.90
2023-04-12T02:09:40.444Z,4.90
2023-04-12T02:12:08.751Z,4.80
2023-04-12T02:14:36.869Z,4.90
2023-04-12T02:17:05.317Z,4.90
2023-04-12T02:19:34.583Z,4.90
2023-04-12T02:22:04.574Z,4.90
2023-04-12T02:24:32.751Z,4.80
2023-04-12T02:27:01.346Z,4.90
2023-04-12T02:29:29.247Z,4.90
2023-04-12T02:31:57.157Z,4.90
2023-04-12T02:34:25.100Z,4.90
2023-04-12T02:36:54.330Z,4.90
2023-04-12T02:39:22.501Z,4.90
2023-04-12T02:41:50.475Z,4.90
2023-04-12T02:44:18.433Z,5.00
2023-04-12T02:46:46.489Z,5.00
2023-04-12T02:49:14.593Z,5.10
2023-04-12T02:51:42.811Z,5.00
2023-04-12T02:54:12.827Z,5.10
2023-04-12T02:56:40.750Z,5.20
2023-04-12T02:59:08.638Z,5.30
2023-04-12T03:01:39.420Z,5.30
2023-04-12T03:04:07.778Z,5.30
2023-04-12T03:06:35.929Z,5.20
2023-04-12T03:09:04.494Z,5.20
2023-04-12T03:11:33.767Z,5.20
2023-04-12T03:14:01.650Z,5.20
2023-04-12T03:16:30.206Z,5.20
2023-04-12T03:18:58.643Z,5.20
2023-04-12T03:21:28.277Z,5.30
2023-04-12T03:23:56.484Z,5.30
2023-04-12T03:26:26.570Z,5.30
2023-04-12T03:28:57.635Z,5.30
2023-04-12T03:31:27.192Z,5.30
2023-04-12T03:33:55.659Z,5.30
2023-04-12T03:36:24.237Z,5.20
2023-04-12T03:38:52.140Z,5.20
2023-04-12T03:41:20.535Z,5.20
2023-04-12T03:43:48.443Z,5.20
2023-04-12T03:46:18.026Z,5.30
2023-04-12T03:48:45.989Z,5.30
2023-04-12T03:51:13.931Z,5.20
2023-04-12T03:53:42.213Z,5.30
2023-04-12T03:56:10.194Z,5.30
2023-04-12T03:58:38.202Z,5.30
2023-04-12T04:01:06.818Z,5.30
2023-04-12T04:03:36.576Z,5.30
2023-04-12T04:06:04.908Z,5.30
2023-04-12T04:08:33.131Z,5.30
2023-04-12T04:11:01.681Z,5.20
2023-04-12T04:13:29.686Z,5.20
2023-04-12T04:16:03.388Z,5.20
2023-04-12T04:18:31.356Z,5.20
2023-04-12T04:21:00.592Z,5.20
2023-04-12T04:23:29.239Z,5.20
2023-04-12T04:25:57.463Z,5.30
2023-04-12T04:28:25.342Z,5.20
2023-04-12T04:30:55.707Z,5.20
2023-04-12T04:33:24.378Z,5.20
2023-04-12T04:35:52.792Z,5.20
2023-04-12T04:38:25.519Z,5.30
2023-04-12T04:40:54.182Z,5.30
2023-04-12T04:43:22.404Z,5.30
2023-04-12T04:45:54.823Z,5.30
2023-04-12T04:48:22.764Z,5.30
2023-04-12T04:50:51.693Z,5.40
2023-04-12T04:53:22.528Z,5.40
2023-04-12T04:55:50.405Z,5.40
2023-04-12T04:58:18.308Z,5.50
2023-04-12T05:00:46.326Z,5.50
2023-04-12T05:03:14.306Z,5.50
2023-04-12T05:05:42.267Z,5.50
2023-04-12T05:08:10.149Z,5.50
2023-04-12T05:10:39.383Z,5.50
2023-04-12T05:13:07.251Z,5.60
2023-04-12T05:15:35.341Z,5.60
2023-04-12T05:18:03.572Z,5.60
2023-04-12T05:20:31.874Z,5.70
2023-04-12T05:22:59.779Z,5.70
2023-04-12T05:25:27.706Z,5.70
2023-04-12T05:27:56.920Z,5.80
2023-04-12T05:30:25.073Z,5.80
2023-04-12T05:32:53.041Z,5.80
2023-04-12T05:35:21.033Z,5.80
2023-04-12T05:37:49.059Z,5.80
2023-04-12T05:40:17.129Z,5.90
2023-04-12T05:42:44.947Z,5.90
2023-04-12T05:45:14.605Z,5.90
2023-04-12T05:47:42.534Z,5.90
2023-04-12T05:50:11.530Z,5.90
2023-04-12T05:52:39.452Z,5.90
2023-04-12T05:55:07.823Z,5.90
2023-04-12T05:57:35.669Z,6.00
2023-04-12T06:00:08.408Z,6.00
2023-04-12T06:02:37.902Z,6.00
2023-04-12T06:05:06.706Z,6.00
2023-04-12T06:07:34.936Z,6.10
2023-04-12T06:10:02.808Z,6.10
2023-04-12T06:12:30.955Z,6.20
2023-04-12T06:14:58.822Z,6.30
2023-04-12T06:17:26.775Z,6.30
2023-04-12T06:19:56.030Z,6.40
2023-04-12T06:22:23.962Z,6.50
2023-04-12T06:24:52.233Z,6.60
2023-04-12T06:27:20.714Z,6.60
2023-04-12T06:29:48.612Z,6.60
2023-04-12T06:32:16.475Z,6.70
2023-04-12T06:34:44.330Z,6.70
2023-04-12T06:37:13.520Z,6.70
2023-04-12T06:39:41.357Z,6.60
2023-04-12T06:42:09.227Z,6.70
2023-04-12T06:44:37.077Z,6.70
2023-04-12T06:47:04.960Z,6.70
2023-04-12T06:49:32.983Z,6.70
2023-04-12T06:52:01.105Z,6.70
2023-04-12T06:54:30.292Z,6.70
2023-04-12T06:56:58.524Z,6.70
2023-04-12T06:59:26.377Z,6.70
2023-04-12T07:01:54.277Z,6.60
2023-04-12T07:04:22.188Z,6.70
2023-04-12T07:06:50.126Z,6.70
2023-04-12T07:09:17.970Z,6.80
2023-04-12T07:11:47.305Z,6.80
2023-04-12T07:14:15.302Z,6.90
2023-04-12T07:16:43.991Z,6.90
2023-04-12T07:19:12.568Z,6.90
2023-04-12T07:21:40.408Z,6.90
2023-04-12T07:24:08.639Z,6.90
2023-04-12T07:26:36.525Z,6.90
2023-04-12T07:29:05.930Z,6.90
2023-04-12T07:31:33.823Z,6.90
2023-04-12T07:34:01.757Z,6.90
2023-04-12T07:36:29.718Z,6.90
2023-04-12T07:38:57.918Z,7.00
2023-04-12T07:41:25.986Z,6.90
2023-04-12T07:43:53.875Z,7.00
2023-04-12T07:46:23.150Z,6.90
2023-04-12T07:48:52.360Z,6.90
2023-04-12T07:51:20.194Z,6.90
2023-04-12T07:53:48.735Z,6.90
2023-04-12T07:56:16.957Z,6.90
2023-04-12T07:58:44.800Z,7.00
2023-04-12T08:01:13.509Z,7.00
2023-04-12T08:03:42.909Z,7.00
2023-04-12T08:06:11.028Z,7.00
2023-04-12T08:08:39.017Z,7.10
2023-04-12T08:11:06.967Z,7.10
2023-04-12T08:13:35.816Z,7.10
2023-04-12T08:16:03.873Z,7.10
2023-04-12T08:18:31.844Z,7.10
2023-04-12T08:21:01.279Z,7.10
2023-04-12T08:23:29.185Z,7.10
2023-04-12T08:26:03.238Z,7.10
2023-04-12T08:28:31.399Z,7.10
2023-04-12T08:30:59.772Z,7.10
2023-04-12T08:33:27.956Z,7.10
2023-04-12T08:35:56.061Z,7.10
2023-04-12T08:38:41.581Z,7.20
2023-04-12T08:41:14.135Z,7.20
2023-04-12T08:43:45.413Z,7.10
2023-04-12T08:46:15.576Z,7.20
2023-04-12T08:48:46.363Z,7.20
2023-04-12T08:51:16.435Z,7.20
2023-04-12T08:53:45.945Z,7.20
2023-04-12T08:56:15.065Z,7.20
2023-04-12T08:58:48.960Z,7.20
2023-04-12T09:01:19.892Z,7.30
2023-04-12T09:03:48.169Z,7.30
2023-04-12T09:06:16.299Z,7.30
2023-04-12T09:08:56.261Z,7.30
2023-04-12T09:11:26.046Z,7.30
2023-04-12T09:13:55.365Z,7.30
2023-04-12T09:16:36.820Z,7.30
2023-04-12T09:19:04.833Z,7.40
2023-04-12T09:21:34.657Z,7.40
2023-04-12T09:24:13.582Z,7.40
2023-04-12T09:26:42.884Z,7.40
2023-04-12T09:29:24.739Z,7.40
2023-04-12T09:32:02.636Z,7.40
2023-04-12T09:34:31.062Z,7.50
2023-04-12T09:36:59.374Z,7.50
2023-04-12T09:39:35.487Z,7.50
2023-04-12T09:42:14.970Z,7.50
2023-04-12T09:44:54.104Z,7.50
2023-04-12T09:47:22.550Z,7.50
2023-04-12T09:49:50.690Z,7.50
2023-04-12T09:52:18.713Z,7.60
2023-04-12T09:54:49.395Z,7.60
2023-04-12T09:57:19.419Z,7.70
2023-04-12T09:59:49.771Z,7.70
2023-04-12T10:02:19.296Z,7.70
2023-04-12T10:04:50.224Z,7.70
2023-04-12T10:07:18.559Z,7.70
2023-04-12T10:09:48.261Z,7.70
2023-04-12T10:12:16.811Z,7.80
2023-04-12T10:14:45.766Z,7.80
2023-04-12T10:17:15.034Z,7.80
2023-04-12T10:19:43.752Z,7.90
2023-04-12T10:22:11.979Z,7.90
2023-04-12T10:24:39.971Z,7.90
2023-04-12T10:27:10.235Z,7.90
2023-04-12T10:29:40.034Z,7.90
2023-04-12T10:32:20.677Z,7.90
2023-04-12T10:34:53.000Z,7.90
2023-04-12T10:37:21.315Z,7.90
2023-04-12T10:39:54.239Z,7.90
2023-04-12T10:42:25.879Z,7.90
2023-04-12T10:44:55.999Z,8.00
2023-04-12T10:47:58.936Z,8.00
2023-04-12T10:50:28.187Z,8.00
2023-04-12T10:53:27.031Z,8.10
2023-04-12T10:55:55.149Z,8.10
2023-04-12T10:58:57.820Z,8.20
2023-04-12T11:01:27.121Z,8.20
2023-04-12T11:04:18.534Z,8.30
2023-04-12T11:06:52.621Z,8.30
2023-04-12T11:09:23.027Z,8.30
2023-04-12T11:11:51.052Z,8.40
2023-04-12T11:14:28.354Z,8.40
2023-04-12T11:17:24.949Z,8.40
2023-04-12T11:19:56.868Z,8.40
2023-04-12T11:22:27.320Z,8.40
2023-04-12T11:24:56.907Z,8.40
2023-04-12T11:27:26.208Z,8.40
2023-04-12T11:29:57.099Z,8.50
2023-04-12T11:32:27.644Z,8.50
2023-04-12T11:34:57.286Z,8.50
2023-04-12T11:37:27.004Z,8.60
2023-04-12T11:39:58.149Z,8.50
2023-04-12T11:42:27.688Z,8.50
2023-04-12T11:45:02.399Z,8.60
2023-04-12T11:47:33.285Z,8.60
2023-04-12T11:50:01.246Z,8.60
2023-04-12T11:52:30.723Z,8.60
2023-04-12T11:55:01.981Z,8.60
2023-04-12T11:57:31.109Z,8.70
2023-04-12T12:00:00.849Z,8.80
2023-04-12T12:02:33.061Z,8.80
2023-04-12T12:05:03.259Z,8.90
2023-04-12T12:07:31.776Z,8.90
2023-04-12T12:09:59.991Z,8.90
2023-04-12T12:12:28.690Z,9.00
2023-04-12T12:15:02.839Z,9.00
2023-04-12T12:17:30.757Z,9.00
2023-04-12T12:20:01.381Z,9.10
2023-04-12T12:22:29.322Z,9.20
2023-04-12T12:24:58.789Z,9.20
2023-04-12T12:27:35.863Z,9.30
2023-04-12T12:30:08.282Z,9.30
2023-04-12T12:32:37.572Z,9.40
2023-04-12T12:35:10.273Z,9.40
2023-04-12T12:37:38.174Z,9.40
2023-04-12T12:40:13.742Z,9.40
2023-04-12T12:42:49.886Z,9.40
2023-04-12T12:45:21.460Z,9.40
2023-04-12T12:47:52.064Z,9.40
2023-04-12T12:50:24.771Z,9.40
2023-04-12T12:52:53.588Z,9.40
2023-04-12T12:55:22.519Z,9.50
2023-04-12T12:58:06.895Z,9.60
2023-04-12T13:00:37.449Z,9.60
2023-04-12T13:03:05.598Z,9.60
2023-04-12T13:05:34.016Z,9.60
2023-04-12T13:08:01.880Z,9.70
2023-04-12T13:10:29.735Z,9.70
2023-04-12T13:12:58.734Z,9.70
2023-04-12T13:15:26.650Z,9.70
2023-04-12T13:17:56.457Z,9.70
2023-04-12T13:20:24.688Z,9.80
2023-04-12T13:22:53.017Z,9.80
2023-04-12T13:25:21.416Z,9.90
2023-04-12T13:27:50.195Z,10.00
2023-04-12T13:30:19.241Z,10.10
2023-04-12T13:32:47.548Z,10.20
2023-04-12T13:35:16.816Z,10.20
2023-04-12T13:37:44.676Z,10.20
2023-04-12T13:40:12.979Z,10.20
2023-04-12T13:42:40.936Z,10.20
2023-04-12T13:45:11.266Z,10.20
2023-04-12T13:47:39.732Z,10.30
2023-04-12T13:50:08.747Z,10.30
2023-04-12T13:52:38.071Z,10.30
2023-04-12T13:55:08.255Z,10.30
2023-04-12T13:57:36.618Z,10.30
2023-04-12T14:00:04.949Z,10.30
2023-04-12T14:02:33.030Z,10.30
2023-04-12T14:05:01.127Z,10.40
2023-04-12T14:07:29.480Z,10.30
2023-04-12T14:09:58.862Z,10.30
2023-04-12T14:12:26.757Z,10.40
2023-04-12T14:14:54.640Z,10.40
2023-04-12T14:17:22.626Z,10.50
2023-04-12T14:19:51.080Z,10.60
2023-04-12T14:22:18.985Z,10.70
2023-04-12T14:24:46.836Z,10.70
2023-04-12T14:27:17.902Z,10.80
2023-04-12T14:29:46.117Z,10.80
2023-04-12T14:32:13.996Z,11.00
2023-04-12T14:34:43.328Z,11.20
2023-04-12T14:37:11.432Z,11.30
2023-04-12T14:39:39.329Z,11.40
2023-04-12T14:42:07.614Z,11.40
2023-04-12T14:44:36.854Z,11.40
2023-04-12T14:47:04.690Z,11.40
2023-04-12T14:49:33.443Z,11.30
2023-04-12T14:52:01.975Z,11.30
2023-04-12T14:54:29.887Z,11.30
2023-04-12T14:56:57.819Z,11.20
2023-04-12T14:59:27.218Z,11.20
2023-04-12T15:01:58.184Z,11.20
2023-04-12T15:04:26.308Z,11.10
2023-04-12T15:06:54.318Z,11.00
2023-04-12T15:09:22.203Z,11.00
2023-04-12T15:11:54.817Z,10.90
2023-04-12T15:14:23.851Z,10.90
2023-04-12T15:16:51.766Z,10.90
2023-04-12T15:19:23.437Z,10.90
2023-04-12T15:21:52.183Z,11.00
2023-04-12T15:24:20.869Z,11.00
2023-04-12T15:26:50.860Z,11.00
2023-04-12T15:29:19.700Z,10.90
2023-04-12T15:31:47.844Z,10.80
2023-04-12T15:34:15.741Z,10.80
2023-04-12T15:36:45.966Z,10.80
2023-04-12T15:39:15.007Z,10.70
2023-04-12T15:41:43.715Z,10.60
2023-04-12T15:44:13.347Z,10.50
2023-04-12T15:46:42.346Z,10.50
2023-04-12T15:49:10.829Z,10.40
2023-04-12T15:51:38.919Z,10.30
2023-04-12T15:54:08.685Z,10.20
2023-04-12T15:56:38.092Z,10.10
2023-04-12T15:59:06.191Z,10.10
2023-04-12T16:01:35.715Z,10.10
2023-04-12T16:04:05.224Z,10.10
2023-04-12T16:06:35.502Z,10.00
2023-04-12T16:09:04.467Z,9.90
2023-04-12T16:11:34.064Z,9.90
2023-04-12T16:14:02.067Z,9.90
2023-04-12T16:16:30.231Z,9.90
2023-04-12T16:18:59.925Z,9.90
2023-04-12T16:21:29.482Z,9.90
2023-04-12T16:23:57.298Z,9.90
2023-04-12T16:26:25.640Z,10.00
2023-04-12T16:28:54.991Z,10.10
2023-04-12T16:31:25.323Z,10.20
2023-04-12T16:33:54.023Z,10.20
2023-04-12T16:36:23.424Z,10.30
2023-04-12T16:38:51.654Z,10.40
2023-04-12T16:41:20.389Z,10.50
2023-04-12T16:43:52.667Z,10.50
2023-04-12T16:46:23.148Z,10.50
2023-04-12T16:48:51.108Z,10.40
2023-04-12T16:51:19.016Z,10.40
2023-04-12T16:53:47.023Z,10.40
2023-04-12T16:56:15.200Z,10.30
2023-04-12T16:58:43.222Z,10.30
2023-04-12T17:01:16.447Z,10.30
2023-04-12T17:03:47.678Z,10.30
2023-04-12T17:06:16.145Z,10.30
2023-04-12T17:08:44.978Z,10.30
2023-04-12T17:11:12.943Z,10.30
2023-04-12T17:13:40.944Z,10.20
2023-04-12T17:16:08.855Z,10.20
2023-04-12T17:18:40.118Z,10.20
2023-04-12T17:21:09.439Z,10.10
2023-04-12T17:23:37.737Z,10.00
2023-04-12T17:26:06.921Z,10.00
2023-04-12T17:28:35.133Z,10.00
2023-04-12T17:31:03.035Z,9.90
2023-04-12T17:33:30.928Z,9.80
2023-04-12T17:35:59.057Z,9.80
2023-04-12T17:38:28.349Z,9.70
2023-04-12T17:40:56.224Z,9.60
2023-04-12T17:43:24.121Z,9.60
2023-04-12T17:45:52.060Z,9.60
2023-04-12T17:48:19.963Z,9.50
2023-04-12T17:50:47.839Z,9.40
2023-04-12T17:53:15.677Z,9.30
2023-04-12T17:55:44.885Z,9.30
2023-04-12T17:58:12.737Z,9.20
2023-04-12T18:00:40.586Z,9.20
2023-04-12T18:03:09.589Z,9.10
2023-04-12T18:05:37.552Z,9.00
2023-04-12T18:08:06.176Z,9.00
2023-04-12T18:10:34.471Z,8.90
2023-04-12T18:13:04.754Z,8.80
2023-04-12T18:15:32.858Z,8.80
2023-04-12T18:18:00.907Z,8.70
2023-04-12T18:20:29.577Z,8.70
2023-04-12T18:22:57.474Z,8.60
2023-04-12T18:25:25.378Z,8.60
2023-04-12T18:27:53.209Z,8.50
2023-04-12T18:30:22.713Z,8.50
2023-04-12T18:32:51.046Z,8.40
2023-04-12T18:35:19.160Z,8.40
2023-04-12T18:37:47.010Z,8.40
2023-04-12T18:40:15.981Z,8.40
2023-04-12T18:42:45.353Z,8.40
2023-04-12T18:45:13.267Z,8.40
2023-04-12T18:47:42.502Z,8.50
2023-04-12T18:50:11.429Z,8.50
2023-04-12T18:52:39.300Z,8.60
2023-04-12T18:55:08.392Z,8.70
2023-04-12T18:57:36.524Z,8.70
2023-04-12T19:00:10.412Z,8.80
2023-04-12T19:02:38.470Z,8.80
2023-04-12T19:05:10.192Z,8.80
2023-04-12T19:07:38.130Z,8.80
2023-04-12T19:10:07.072Z,8.80
2023-04-12T19:12:35.012Z,8.70
2023-04-12T19:15:02.941Z,8.70
2023-04-12T19:17:31.077Z,8.70
2023-04-12T19:19:58.956Z,8.60
2023-04-12T19:22:28.738Z,8.60
2023-04-12T19:24:56.823Z,8.50
2023-04-12T19:27:24.678Z,8.50
2023-04-12T19:29:53.526Z,8.50
2023-04-12T19:32:22.081Z,8.50
2023-04-12T19:34:51.631Z,8.40
2023-04-12T19:37:19.521Z,8.40
2023-04-12T19:39:48.811Z,8.40
2023-04-12T19:42:17.744Z,8.30
2023-04-12T19:44:45.879Z,8.30
2023-04-12T19:47:13.778Z,8.20
2023-04-12T19:49:42.275Z,8.20
2023-04-12T19:52:11.037Z,8.10
2023-04-12T19:54:39.540Z,8.00
2023-04-12T19:57:08.937Z,8.00
2023-04-12T19:59:36.844Z,7.90
2023-04-12T20:02:04.990Z,7.90
2023-04-12T20:04:33.288Z,7.80
2023-04-12T20:07:01.341Z,7.80
2023-04-12T20:09:29.238Z,7.70
2023-04-12T20:11:57.321Z,7.70
2023-04-12T20:14:27.056Z,7.70
2023-04-12T20:16:56.746Z,7.70
2023-04-12T20:19:24.683Z,7.70
2023-04-12T20:21:52.713Z,7.70
2023-04-12T20:24:25.436Z,7.80
2023-04-12T20:26:53.530Z,7.70
2023-04-12T20:29:21.960Z,7.70
2023-04-12T20:31:51.584Z,7.70
2023-04-12T20:34:19.466Z,7.70
2023-04-12T20:36:48.282Z,7.50
2023-04-12T20:39:16.400Z,7.30
2023-04-12T20:41:49.939Z,7.20
2023-04-12T20:44:18.875Z,7.10
2023-04-12T20:46:47.337Z,7.00
2023-04-12T20:49:16.682Z,6.90
2023-04-12T20:51:46.695Z,6.90
2023-04-12T20:54:14.629Z,6.80
2023-04-12T20:56:42.825Z,6.80
2023-04-12T20:59:12.669Z,6.70
2023-04-12T21:01:40.563Z,6.70
2023-04-12T21:04:08.622Z,6.60
2023-04-12T21:06:37.935Z,6.60
2023-04-12T21:09:05.953Z,6.50
2023-04-12T21:11:33.877Z,6.50
2023-04-12T21:14:02.158Z,6.40
2023-04-12T21:16:30.832Z,6.40
2023-04-12T21:18:59.267Z,6.40
2023-04-12T21:21:28.516Z,6.30
2023-04-12T21:23:57.727Z,6.30
2023-04-12T21:26:25.710Z,6.20
2023-04-12T21:28:53.554Z,6.20
2023-04-12T21:31:21.888Z,6.20
2023-04-12T21:33:50.465Z,6.10
2023-04-12T21:36:18.855Z,6.10
2023-04-12T21:38:47.837Z,6.10
2023-04-12T21:41:17.396Z,6.00
2023-04-12T21:43:47.550Z,6.00
2023-04-12T21:46:15.532Z,5.90
2023-04-12T21:48:43.718Z,5.90
2023-04-12T21:51:11.578Z,5.80
2023-04-12T21:53:39.440Z,5.80
2023-04-12T21:56:08.160Z,5.80
2023-04-12T21:58:37.357Z,5.80
2023-04-12T22:01:05.557Z,5.70
2023-04-12T22:03:33.690Z,5.70
2023-04-12T22:06:04.890Z,5.70
2023-04-12T22:08:34.133Z,5.70
2023-04-12T22:11:02.332Z,5.60
2023-04-12T22:13:30.770Z,5.60
2023-04-12T22:16:00.778Z,5.60
2023-04-12T22:18:28.684Z,5.50
2023-04-12T22:20:57.774Z,5.50
2023-04-12T22:23:25.661Z,5.50
2023-04-12T22:25:58.279Z,5.50
2023-04-12T22:28:26.194Z,5.50
2023-04-12T22:30:54.105Z,5.50
2023-04-12T22:33:23.467Z,5.50
2023-04-12T22:35:51.338Z,5.50
2023-04-12T22:38:19.552Z,5.40
2023-04-12T22:40:47.762Z,5.30
2023-04-12T22:43:18.400Z,5.30
2023-04-12T22:45:46.957Z,5.30
2023-04-12T22:48:15.902Z,5.30
2023-04-12T22:50:45.832Z,5.20
2023-04-12T22:53:14.043Z,5.20
2023-04-12T22:55:42.216Z,5.20
2023-04-12T22:58:10.145Z,5.20
2023-04-12T23:00:39.343Z,5.20
2023-04-12T23:03:10.806Z,5.20
2023-04-12T23:08:08.502Z,5.20
2023-04-12T23:10:37.577Z,5.30
2023-04-12T23:13:05.580Z,5.30
2023-04-12T23:15:35.207Z,5.30
2023-04-12T23:18:04.330Z,5.40
2023-04-12T23:20:32.871Z,5.40
2023-04-12T23:23:00.835Z,5.40
2023-04-12T23:25:39.285Z,5.50
2023-04-12T23:28:12.953Z,5.50
2023-04-12T23:30:43.845Z,5.40
2023-04-12T23:33:12.070Z,5.40
2023-04-12T23:35:41.525Z,5.40
2023-04-12T23:38:10.550Z,5.40
2023-04-12T23:40:39.786Z,5.30
2023-04-12T23:43:08.618Z,5.30
2023-04-12T23:45:36.792Z,5.30
2023-04-12T23:48:05.580Z,5.30
2023-04-12T23:50:33.823Z,5.40
2023-04-12T23:53:01.723Z,5.50
2023-04-12T23:55:29.594Z,5.50
2023-04-12T23:57:58.786Z,5.50
